Terminal Aerodrome Forecast
Issued by NWS Twin Cities, MN

Home | Current Version | Previous Version | Graphics & Text | Print | Product List | Glossary On
Versions: 1 2 3 4 5 6 7 8 9 10 11 12 13 14
000
FTUS43 KMPX 240525
TAFEAU
TAF
KEAU 240525Z 2406/2506 15009KT 6SM -SHRA BR BKN060 OVC120
      TEMPO 2406/2409 4SM TSRA OVC035CB
     FM241000 22005KT 4SM BR BKN007 OVC020
     FM241600 26007KT P6SM FEW015 BKN025
     FM241900 29010KT P6SM FEW025 SCT200=

USA.gov is the U.S. government's official web portal to all federal, state and local government web resources and services.